Bruce Mcallister — WDD5894 — position and weather

sailwx.info

Track history (hours):
 
Tides and Currents Weather Stations Pressure Air Temp Water Temp Dewpoint Dewpoint Depression Visibility Wind Speed Wind Dir Waves Ship Positions

Bruce Mcallister

Owner: McAllister Towing & Transportation Company Inc., Staten Island, NY. More information available from US FCC via Universal Licensing System and Coast Guard Vessel Documentation Center.

Last reported at 2018-May-20 13:09 UTC. Time now 2018-May-20 13:31 UTC.
Position N 40°38' W 074°10'.

Length 33 m; draft 4.9 m.

Type: Tug. MMSI: 367165430.

Date/timePositionNaut miles runAvg speedWind from/ knotsBaromVisibWave heightAir tempDewpointWater temp
2018-May-20 13:09N 40°38' W 074°10'0 0.0
2018-May-20 13:00N 40°38' W 074°10'0 0.0
2018-May-20 11:35N 40°38' W 074°10'1 6.5
2018-May-20 11:26N 40°39' W 074°09'3 6.9
2018-May-20 11:00N 40°39' W 074°05'1 1.4
2018-May-20 10:19N 40°40' W 074°04'0 0.7
2018-May-20 09:59N 40°40' W 074°04'3 5.2
2018-May-20 09:30N 40°37' W 074°03'5 6.9
2018-May-20 08:44N 40°39' W 074°10'0 0.0
2018-May-20 05:12N 40°38' W 074°10'2 0.4
2018-May-20 01:11N 40°38' W 074°12'1 7.8
2018-May-20 01:00N 40°39' W 074°11'1 1.4
2018-May-20 00:30N 40°38' W 074°10'0 0.0
2018-May-20 00:00N 40°38' W 074°10'0 0.0
2018-May-19 23:26N 40°38' W 074°10'3 5.9
2018-May-19 22:59N 40°39' W 074°06'2 4.0
2018-May-19 22:30N 40°40' W 074°08'2 2.1
2018-May-19 21:41N 40°42' W 074°08'1 5.4
2018-May-19 21:30N 40°41' W 074°08'3 5.4
2018-May-19 20:59N 40°38' W 074°10'0 0.0
2018-May-19 20:23N 40°38' W 074°10'0 0.0
2018-May-19 19:59N 40°38' W 074°10'0 0.0
2018-May-19 19:20N 40°38' W 074°10'0 0.0
2018-May-19 17:40N 40°38' W 074°10'0 1.7
2018-May-19 17:30N 40°38' W 074°09'3 6.3
2018-May-19 17:00N 40°39' W 074°05'3 5.3
2018-May-19 16:29N 40°39' W 074°09'1 1.2
2018-May-19 15:19N 40°41' W 074°08'2 6.8
2018-May-19 15:00N 40°39' W 074°08'4 7.6
2018-May-19 14:30N 40°38' W 074°03'4 6.2
2018-May-19 13:53N 40°39' W 074°08'1 1.9
2018-May-19 13:30N 40°38' W 074°09'1 1.1
2018-May-19 13:00N 40°39' W 074°09'2 3.9
2018-May-19 12:30N 40°40' W 074°08'1 1.3
2018-May-19 12:00N 40°41' W 074°09'2 3.2
2018-May-19 11:28N 40°39' W 074°09'1 1.7
2018-May-19 10:54N 40°38' W 074°10'0 0.0
2018-May-19 10:25N 40°38' W 074°10'0 0.0
2018-May-19 09:57N 40°38' W 074°10'0 0.0
2018-May-19 09:30N 40°38' W 074°10'0 0.0
2018-May-19 08:59N 40°38' W 074°10'0 0.0
2018-May-19 08:29N 40°38' W 074°10'0 0.0
2018-May-19 05:34N 40°38' W 074°10'0 0.0
2018-May-19 05:07N 40°38' W 074°10'0 0.0
2018-May-19 04:55N 40°38' W 074°10'0 0.0
2018-May-19 04:19N 40°38' W 074°10'0 0.0
2018-May-19 03:55N 40°38' W 074°10'0 0.0
2018-May-19 03:30N 40°38' W 074°10'0 0.0
2018-May-19 03:00N 40°38' W 074°10'0 0.0
2018-May-19 02:30N 40°38' W 074°10'0 0.0
2018-May-19 02:00N 40°38' W 074°10'0 0.0
2018-May-19 01:30N 40°38' W 074°10'0 0.0
2018-May-19 01:00N 40°38' W 074°10'0 0.0
2018-May-19 00:30N 40°38' W 074°10'0 0.0
2018-May-19 00:00N 40°38' W 074°10'0 0.0
2018-May-18 23:30N 40°38' W 074°10'0 0.0
2018-May-18 22:59N 40°38' W 074°10'0 0.0
2018-May-18 22:30N 40°38' W 074°10'0 0.0
2018-May-18 22:00N 40°38' W 074°10'1 2.3
2018-May-18 21:30N 40°39' W 074°08'0 0.6
2018-May-18 21:00N 40°39' W 074°08'1 2.8
2018-May-18 20:30N 40°40' W 074°08'0 0.5
2018-May-18 20:00N 40°40' W 074°09'0 0.1
2018-May-18 19:30N 40°40' W 074°09'0 0.0
2018-May-18 19:00N 40°40' W 074°09'0 0.6
2018-May-18 18:27N 40°40' W 074°08'0 0.0
2018-May-18 17:57N 40°40' W 074°08'0 0.0
2018-May-18 17:30N 40°40' W 074°08'0 0.0
2018-May-18 17:00N 40°40' W 074°08'0 0.0
2018-May-18 16:30N 40°40' W 074°08'1 2.1
2018-May-18 15:54N 40°42' W 074°08'0 0.1
2018-May-18 15:25N 40°42' W 074°08'2 4.7
2018-May-18 14:54N 40°39' W 074°09'2 5.6
2018-May-18 14:30N 40°39' W 074°06'1 2.8
2018-May-18 14:00N 40°39' W 074°04'4 8.2
2018-May-18 13:28N 40°38' W 074°10'0 0.0
2018-May-18 12:59N 40°38' W 074°10'0 0.0
2018-May-18 12:29N 40°38' W 074°10'0 0.0
2018-May-18 12:00N 40°38' W 074°10'0 0.0
2018-May-18 11:30N 40°38' W 074°10'1 1.8
2018-May-18 10:55N 40°39' W 074°11'0 0.3
2018-May-18 10:30N 40°39' W 074°11'2 3.6
2018-May-18 09:54N 40°39' W 074°08'1 3.8
2018-May-18 09:30N 40°40' W 074°08'0 0.9
2018-May-18 09:00N 40°40' W 074°08'0 0.0
2018-May-18 08:30N 40°40' W 074°08'0 0.0
2018-May-18 08:00N 40°40' W 074°08'0 0.0
2018-May-18 07:27N 40°40' W 074°08'0 0.0
2018-May-18 07:00N 40°40' W 074°08'0 0.0
2018-May-18 06:30N 40°40' W 074°08'0 0.0
2018-May-18 06:00N 40°40' W 074°08'0 0.0
2018-May-18 05:30N 40°40' W 074°08'2 3.4
2018-May-18 04:59N 40°39' W 074°09'2 3.2
2018-May-18 04:30N 40°39' W 074°07'1 1.5
2018-May-18 03:56N 40°39' W 074°08'1 2.3
2018-May-18 03:18N 40°39' W 074°10'0 0.1
2018-May-18 02:44N 40°39' W 074°10'0 0.4
2018-May-18 02:22N 40°38' W 074°10'0 0.0
2018-May-18 02:00N 40°38' W 074°10'0 0.0
2018-May-18 01:30N 40°38' W 074°10'0 0.0
2018-May-18 00:58N 40°38' W 074°10'0 0.0
2018-May-18 00:24N 40°38' W 074°10'0 0.0
2018-May-17 23:53N 40°38' W 074°10'2 6.4
2018-May-17 23:30N 40°39' W 074°07'4 7.0
2018-May-17 23:00N 40°41' W 074°03'2 3.9
2018-May-17 22:30N 40°39' W 074°04'1 1.8
2018-May-17 22:00N 40°38' W 074°04'6 1.5
2018-May-17 17:47N 40°38' W 074°12'1 1.8
2018-May-17 17:28N 40°38' W 074°12'3 7.4
2018-May-17 17:00N 40°39' W 074°08'4 7.3
2018-May-17 16:30N 40°39' W 074°03'2 4.1
2018-May-17 16:00N 40°40' W 074°01'2 3.7
2018-May-17 15:30N 40°39' W 074°02'6 1.2
2018-May-17 10:39N 40°38' W 074°10'1 6.2
2018-May-17 10:29N 40°39' W 074°11'0 0.4
2018-May-17 09:53N 40°39' W 074°11'3 6.7
2018-May-17 09:30N 40°39' W 074°08'2 4.4
2018-May-17 09:00N 40°39' W 074°05'2 3.9
2018-May-17 08:30N 40°37' W 074°04'2 4.0
2018-May-17 07:59N 40°39' W 074°05'3 1.5
2018-May-17 05:37N 40°38' W 074°10'1 5.1
2018-May-17 05:21N 40°39' W 074°08'2 5.8
2018-May-17 05:00N 40°39' W 074°05'3 6.4
2018-May-17 04:30N 40°36' W 074°03'1 2.1
2018-May-17 03:59N 40°36' W 074°02'2 3.9
2018-May-17 03:30N 40°37' W 074°03'3 6.0
2018-May-17 03:00N 40°40' W 074°05'0 0.0
2018-May-17 02:30N 40°40' W 074°05'0 0.0
2018-May-17 01:55N 40°40' W 074°05'0 0.0
2018-May-17 01:29N 40°40' W 074°05'2 3.8
2018-May-17 00:58N 40°39' W 074°07'2 4.0
2018-May-17 00:30N 40°39' W 074°09'1 1.5
2018-May-16 23:58N 40°40' W 074°09'3 1.1
2018-May-16 21:00N 40°38' W 074°12'4 7.9
2018-May-16 20:30N 40°39' W 074°07'3 5.3
2018-May-16 20:00N 40°38' W 074°04'2 4.4
2018-May-16 19:30N 40°36' W 074°03'0 0.6
2018-May-16 19:00N 40°36' W 074°03'4 7.1
2018-May-16 18:24N 40°39' W 074°08'1 3.5
2018-May-16 18:00N 40°38' W 074°10'2 0.4
2018-May-16 12:50N 40°37' W 074°12'2 7.3
2018-May-16 12:30N 40°39' W 074°10'0 0.2
2018-May-16 10:47N 40°38' W 074°10'2 7.2
2018-May-16 10:30N 40°40' W 074°08'1 2.3
2018-May-16 10:00N 40°41' W 074°09'0 0.8
2018-May-16 09:31N 40°41' W 074°09'2 4.7
2018-May-16 09:00N 40°39' W 074°09'4 8.0
2018-May-16 08:30N 40°38' W 074°03'2 4.4
2018-May-16 07:58N 40°39' W 074°06'3 5.8
2018-May-16 07:30N 40°38' W 074°10'0 0.0
2018-May-16 07:00N 40°38' W 074°10'0 0.0
2018-May-16 06:30N 40°38' W 074°10'0 0.0
2018-May-16 06:00N 40°38' W 074°10'4 0.3
2018-May-15 14:10N 40°35' W 074°13'2 8.3
2018-May-15 13:55N 40°37' W 074°12'3 7.4
2018-May-15 13:30N 40°39' W 074°09'1 1.5
2018-May-15 13:00N 40°40' W 074°09'1 2.9
2018-May-15 12:30N 40°39' W 074°07'4 0.4
2018-May-15 00:52N 40°37' W 074°12'3 7.1
2018-May-15 00:30N 40°39' W 074°09'2 4.8
2018-May-15 00:00N 40°41' W 074°09'0 0.3
2018-May-14 23:30N 40°41' W 074°10'1 2.7
2018-May-14 23:00N 40°40' W 074°08'2 4.3
2018-May-14 22:29N 40°38' W 074°10'0 0.0
2018-May-14 22:00N 40°38' W 074°10'0 0.0
2018-May-14 21:29N 40°38' W 074°10'0 0.0
2018-May-14 21:00N 40°38' W 074°10'0 0.0
2018-May-14 20:29N 40°38' W 074°10'0 0.0
2018-May-14 19:59N 40°38' W 074°10'0 0.0
2018-May-14 19:00N 40°38' W 074°10'0 0.0
2018-May-14 18:29N 40°38' W 074°10'0 0.0
2018-May-14 18:00N 40°38' W 074°10'0 0.8
2018-May-14 17:30N 40°38' W 074°09'2 3.6
2018-May-14 16:55N 40°39' W 074°07'0 0.0
2018-May-14 16:28N 40°39' W 074°07'2 3.8
2018-May-14 16:00N 40°39' W 074°09'2 3.0
2018-May-14 15:30N 40°40' W 074°08'0 0.0
2018-May-14 14:59N 40°40' W 074°08'0 0.0
2018-May-14 14:30N 40°40' W 074°08'0 0.1
2018-May-14 14:00N 40°40' W 074°08'3 6.6
2018-May-14 13:29N 40°38' W 074°12'0 0.6
2018-May-14 12:55N 40°38' W 074°12'0 0.0
2018-May-14 12:25N 40°38' W 074°12'0 0.9
2018-May-14 11:59N 40°38' W 074°12'2 4.5
2018-May-14 11:30N 40°39' W 074°09'3 6.7
2018-May-14 11:00N 40°39' W 074°05'2 4.1
2018-May-14 10:30N 40°37' W 074°03'4 7.8
2018-May-14 09:59N 40°39' W 074°08'1 2.3
2018-May-14 09:30N 40°38' W 074°09'3 6.0
2018-May-14 09:00N 40°39' W 074°06'3 5.5
2018-May-14 08:30N 40°37' W 074°03'4 6.5
2018-May-14 07:56N 40°39' W 074°07'2 4.9
2018-May-14 07:30N 40°38' W 074°10'0 0.0
2018-May-14 07:00N 40°38' W 074°10'0 0.0
2018-May-14 06:30N 40°38' W 074°10'2 5.0
2018-May-14 06:00N 40°39' W 074°07'2 4.2
2018-May-14 05:30N 40°38' W 074°04'3 5.3
2018-May-14 04:54N 40°39' W 074°08'1 3.1
2018-May-14 04:30N 40°38' W 074°10'0 0.0
2018-May-14 04:00N 40°38' W 074°10'0 0.0
2018-May-14 03:25N 40°38' W 074°10'0 0.0
2018-May-14 03:00N 40°38' W 074°10'0 0.0
2018-May-14 02:27N 40°38' W 074°10'0 0.0
2018-May-14 02:00N 40°38' W 074°10'0 0.0
2018-May-14 01:25N 40°38' W 074°10'0 0.0
2018-May-14 00:55N 40°38' W 074°10'0 0.0
2018-May-14 00:30N 40°38' W 074°10'0 0.0
2018-May-14 00:00N 40°38' W 074°10'0 0.0
2018-May-13 23:30N 40°38' W 074°10'0 0.0
2018-May-13 23:00N 40°38' W 074°10'1 1.6
2018-May-13 22:23N 40°39' W 074°11'1 0.1
2018-May-13 02:31N 40°38' W 074°12'0 8.6
2018-May-13 02:30N 40°38' W 074°12'2 1.5
2018-May-13 01:19N 40°38' W 074°10'0 0.0
2018-May-13 00:58N 40°38' W 074°10'0 0.0
2018-May-13 00:30N 40°38' W 074°10'3 6.2
2018-May-13 00:00N 40°39' W 074°06'2 4.0
2018-May-12 23:24N 40°39' W 074°09'1 1.9
2018-May-12 23:00N 40°40' W 074°09'1 1.2
2018-May-12 22:30N 40°40' W 074°08'0 0.0
2018-May-12 22:00N 40°40' W 074°08'0 0.0
2018-May-12 21:30N 40°40' W 074°08'0 0.0
2018-May-12 21:00N 40°40' W 074°08'0 0.0
2018-May-12 20:30N 40°40' W 074°08'0 0.0
2018-May-12 20:00N 40°40' W 074°08'0 0.0
2018-May-12 19:30N 40°40' W 074°08'0 0.0
2018-May-12 19:00N 40°40' W 074°08'0 0.0
2018-May-12 18:28N 40°40' W 074°08'1 2.9
2018-May-12 18:00N 40°39' W 074°09'3 5.7
2018-May-12 17:30N 40°39' W 074°05'0 0.2
2018-May-12 17:00N 40°39' W 074°05'1 1.9
2018-May-12 16:26N 40°39' W 074°07'3 5.0
2018-May-12 15:55N 40°38' W 074°10'0 0.0
2018-May-12 15:30N 40°38' W 074°10'0 0.0
2018-May-12 14:57N 40°38' W 074°10'0 0.0
2018-May-12 14:30N 40°38' W 074°10'0 0.0
2018-May-12 14:00N 40°38' W 074°10'0 0.0
2018-May-12 13:28N 40°38' W 074°10'0 0.0
2018-May-12 13:00N 40°38' W 074°10'0 0.0
2018-May-12 12:30N 40°38' W 074°10'5 3.1
2018-May-12 11:02N 40°34' W 074°13'0 4.3
2018-May-12 10:56N 40°35' W 074°13'1 0.4
2018-May-12 08:45N 40°36' W 074°12'2 9.2
2018-May-12 08:30N 40°38' W 074°12'2 3.4
2018-May-12 08:00N 40°38' W 074°10'0 0.0
2018-May-12 07:30N 40°38' W 074°10'0 0.0
2018-May-12 06:58N 40°38' W 074°10'0 0.0
2018-May-12 03:49N 40°38' W 074°10'0 0.0
2018-May-12 03:30N 40°38' W 074°10'0 0.0
2018-May-12 00:11N 40°38' W 074°10'0 0.0
2018-May-11 20:46N 40°38' W 074°10'1 0.4
2018-May-11 18:09N 40°39' W 074°11'1 5.4
2018-May-11 18:00N 40°39' W 074°10'3 6.9
2018-May-11 17:30N 40°39' W 074°06'2 3.6
2018-May-11 16:56N 40°37' W 074°04'4 3.7
2018-May-11 15:46N 40°39' W 074°09'0 1.3
2018-May-11 15:30N 40°40' W 074°09'0 0.0
2018-May-11 15:00N 40°40' W 074°09'0 0.0
2018-May-11 10:35N 40°40' W 074°09'0 2.5
2018-May-11 10:30N 40°40' W 074°08'0 0.4
2018-May-11 09:52N 40°40' W 074°08'2 4.3
2018-May-11 09:28N 40°39' W 074°09'1 0.1
2018-May-11 00:27N 40°39' W 074°10'1 0.9
2018-May-10 23:11N 40°39' W 074°09'1 5.6
2018-May-10 23:01N 40°39' W 074°08'2 0.7
2018-May-10 19:44N 40°39' W 074°11'2 5.6
2018-May-10 19:22N 40°39' W 074°09'3 7.5
2018-May-10 19:00N 40°39' W 074°05'1 3.0
2018-May-10 18:31N 40°38' W 074°04'5 4.9
2018-May-10 17:34N 40°38' W 074°10'0 0.1
2018-May-10 17:29N 40°38' W 074°10'0 0.3
2018-May-10 16:20N 40°39' W 074°10'2 6.5
2018-May-10 16:00N 40°39' W 074°07'3 5.3
2018-May-10 15:29N 40°38' W 074°03'1 1.9
2018-May-10 14:45N 40°37' W 074°03'1 1.5
2018-May-10 14:22N 40°37' W 074°03'5 7.0
2018-May-10 13:37N 40°38' W 074°10'0 0.0
2018-May-10 13:21N 40°38' W 074°10'  
Track history (hours):
 
Tides and Currents Weather Stations Pressure Air Temp Water Temp Dewpoint Dewpoint Depression Visibility Wind Speed Wind Dir Waves Ship Positions

Bruce Mcallister

Owner: McAllister Towing & Transportation Company Inc., Staten Island, NY. More information available from US FCC via Universal Licensing System and Coast Guard Vessel Documentation Center.

Last reported at 2018-May-20 13:09 UTC. Time now 2018-May-20 13:31 UTC.
Position N 40°38' W 074°10'.

Length 33 m; draft 4.9 m.

Type: Tug. MMSI: 367165430.

Date/timePositionNaut miles runAvg speedWind from/ knotsBaromVisibWave heightAir tempDewpointWater temp
2018-May-20 13:09N 40°38' W 074°10'0 0.0
2018-May-20 13:00N 40°38' W 074°10'0 0.0
2018-May-20 11:35N 40°38' W 074°10'1 6.5
2018-May-20 11:26N 40°39' W 074°09'3 6.9
2018-May-20 11:00N 40°39' W 074°05'1 1.4
2018-May-20 10:19N 40°40' W 074°04'0 0.7
2018-May-20 09:59N 40°40' W 074°04'3 5.2
2018-May-20 09:30N 40°37' W 074°03'5 6.9
2018-May-20 08:44N 40°39' W 074°10'0 0.0
2018-May-20 05:12N 40°38' W 074°10'2 0.4
2018-May-20 01:11N 40°38' W 074°12'1 7.8
2018-May-20 01:00N 40°39' W 074°11'1 1.4
2018-May-20 00:30N 40°38' W 074°10'0 0.0
2018-May-20 00:00N 40°38' W 074°10'0 0.0
2018-May-19 23:26N 40°38' W 074°10'3 5.9
2018-May-19 22:59N 40°39' W 074°06'2 4.0
2018-May-19 22:30N 40°40' W 074°08'2 2.1
2018-May-19 21:41N 40°42' W 074°08'1 5.4
2018-May-19 21:30N 40°41' W 074°08'3 5.4
2018-May-19 20:59N 40°38' W 074°10'0 0.0
2018-May-19 20:23N 40°38' W 074°10'0 0.0
2018-May-19 19:59N 40°38' W 074°10'0 0.0
2018-May-19 19:20N 40°38' W 074°10'0 0.0
2018-May-19 17:40N 40°38' W 074°10'0 1.7
2018-May-19 17:30N 40°38' W 074°09'3 6.3
2018-May-19 17:00N 40°39' W 074°05'3 5.3
2018-May-19 16:29N 40°39' W 074°09'1 1.2
2018-May-19 15:19N 40°41' W 074°08'2 6.8
2018-May-19 15:00N 40°39' W 074°08'4 7.6
2018-May-19 14:30N 40°38' W 074°03'4 6.2
2018-May-19 13:53N 40°39' W 074°08'1 1.9
2018-May-19 13:30N 40°38' W 074°09'1 1.1
2018-May-19 13:00N 40°39' W 074°09'2 3.9
2018-May-19 12:30N 40°40' W 074°08'1 1.3
2018-May-19 12:00N 40°41' W 074°09'2 3.2
2018-May-19 11:28N 40°39' W 074°09'1 1.7
2018-May-19 10:54N 40°38' W 074°10'0 0.0
2018-May-19 10:25N 40°38' W 074°10'0 0.0
2018-May-19 09:57N 40°38' W 074°10'0 0.0
2018-May-19 09:30N 40°38' W 074°10'0 0.0
2018-May-19 08:59N 40°38' W 074°10'0 0.0
2018-May-19 08:29N 40°38' W 074°10'0 0.0
2018-May-19 05:34N 40°38' W 074°10'0 0.0
2018-May-19 05:07N 40°38' W 074°10'0 0.0
2018-May-19 04:55N 40°38' W 074°10'0 0.0
2018-May-19 04:19N 40°38' W 074°10'0 0.0
2018-May-19 03:55N 40°38' W 074°10'0 0.0
2018-May-19 03:30N 40°38' W 074°10'0 0.0
2018-May-19 03:00N 40°38' W 074°10'0 0.0
2018-May-19 02:30N 40°38' W 074°10'0 0.0
2018-May-19 02:00N 40°38' W 074°10'0 0.0
2018-May-19 01:30N 40°38' W 074°10'0 0.0
2018-May-19 01:00N 40°38' W 074°10'0 0.0
2018-May-19 00:30N 40°38' W 074°10'0 0.0
2018-May-19 00:00N 40°38' W 074°10'0 0.0
2018-May-18 23:30N 40°38' W 074°10'0 0.0
2018-May-18 22:59N 40°38' W 074°10'0 0.0
2018-May-18 22:30N 40°38' W 074°10'0 0.0
2018-May-18 22:00N 40°38' W 074°10'1 2.3
2018-May-18 21:30N 40°39' W 074°08'0 0.6
2018-May-18 21:00N 40°39' W 074°08'1 2.8
2018-May-18 20:30N 40°40' W 074°08'0 0.5
2018-May-18 20:00N 40°40' W 074°09'0 0.1
2018-May-18 19:30N 40°40' W 074°09'0 0.0
2018-May-18 19:00N 40°40' W 074°09'0 0.6
2018-May-18 18:27N 40°40' W 074°08'0 0.0
2018-May-18 17:57N 40°40' W 074°08'0 0.0
2018-May-18 17:30N 40°40' W 074°08'0 0.0
2018-May-18 17:00N 40°40' W 074°08'0 0.0
2018-May-18 16:30N 40°40' W 074°08'1 2.1
2018-May-18 15:54N 40°42' W 074°08'0 0.1
2018-May-18 15:25N 40°42' W 074°08'2 4.7
2018-May-18 14:54N 40°39' W 074°09'2 5.6
2018-May-18 14:30N 40°39' W 074°06'1 2.8
2018-May-18 14:00N 40°39' W 074°04'4 8.2
2018-May-18 13:28N 40°38' W 074°10'0 0.0
2018-May-18 12:59N 40°38' W 074°10'0 0.0
2018-May-18 12:29N 40°38' W 074°10'0 0.0
2018-May-18 12:00N 40°38' W 074°10'0 0.0
2018-May-18 11:30N 40°38' W 074°10'1 1.8
2018-May-18 10:55N 40°39' W 074°11'0 0.3
2018-May-18 10:30N 40°39' W 074°11'2 3.6
2018-May-18 09:54N 40°39' W 074°08'1 3.8
2018-May-18 09:30N 40°40' W 074°08'0 0.9
2018-May-18 09:00N 40°40' W 074°08'0 0.0
2018-May-18 08:30N 40°40' W 074°08'0 0.0
2018-May-18 08:00N 40°40' W 074°08'0 0.0
2018-May-18 07:27N 40°40' W 074°08'0 0.0
2018-May-18 07:00N 40°40' W 074°08'0 0.0
2018-May-18 06:30N 40°40' W 074°08'0 0.0
2018-May-18 06:00N 40°40' W 074°08'0 0.0
2018-May-18 05:30N 40°40' W 074°08'2 3.4
2018-May-18 04:59N 40°39' W 074°09'2 3.2
2018-May-18 04:30N 40°39' W 074°07'1 1.5
2018-May-18 03:56N 40°39' W 074°08'1 2.3
2018-May-18 03:18N 40°39' W 074°10'0 0.1
2018-May-18 02:44N 40°39' W 074°10'0 0.4
2018-May-18 02:22N 40°38' W 074°10'0 0.0
2018-May-18 02:00N 40°38' W 074°10'0 0.0
2018-May-18 01:30N 40°38' W 074°10'0 0.0
2018-May-18 00:58N 40°38' W 074°10'0 0.0
2018-May-18 00:24N 40°38' W 074°10'0 0.0
2018-May-17 23:53N 40°38' W 074°10'2 6.4
2018-May-17 23:30N 40°39' W 074°07'4 7.0
2018-May-17 23:00N 40°41' W 074°03'2 3.9
2018-May-17 22:30N 40°39' W 074°04'1 1.8
2018-May-17 22:00N 40°38' W 074°04'6 1.5
2018-May-17 17:47N 40°38' W 074°12'1 1.8
2018-May-17 17:28N 40°38' W 074°12'3 7.4
2018-May-17 17:00N 40°39' W 074°08'4 7.3
2018-May-17 16:30N 40°39' W 074°03'2 4.1
2018-May-17 16:00N 40°40' W 074°01'2 3.7
2018-May-17 15:30N 40°39' W 074°02'6 1.2
2018-May-17 10:39N 40°38' W 074°10'1 6.2
2018-May-17 10:29N 40°39' W 074°11'0 0.4
2018-May-17 09:53N 40°39' W 074°11'3 6.7
2018-May-17 09:30N 40°39' W 074°08'2 4.4
2018-May-17 09:00N 40°39' W 074°05'2 3.9
2018-May-17 08:30N 40°37' W 074°04'2 4.0
2018-May-17 07:59N 40°39' W 074°05'3 1.5
2018-May-17 05:37N 40°38' W 074°10'1 5.1
2018-May-17 05:21N 40°39' W 074°08'2 5.8
2018-May-17 05:00N 40°39' W 074°05'3 6.4
2018-May-17 04:30N 40°36' W 074°03'1 2.1
2018-May-17 03:59N 40°36' W 074°02'2 3.9
2018-May-17 03:30N 40°37' W 074°03'3 6.0
2018-May-17 03:00N 40°40' W 074°05'0 0.0
2018-May-17 02:30N 40°40' W 074°05'0 0.0
2018-May-17 01:55N 40°40' W 074°05'0 0.0
2018-May-17 01:29N 40°40' W 074°05'2 3.8
2018-May-17 00:58N 40°39' W 074°07'2 4.0
2018-May-17 00:30N 40°39' W 074°09'1 1.5
2018-May-16 23:58N 40°40' W 074°09'3 1.1
2018-May-16 21:00N 40°38' W 074°12'4 7.9
2018-May-16 20:30N 40°39' W 074°07'3 5.3
2018-May-16 20:00N 40°38' W 074°04'2 4.4
2018-May-16 19:30N 40°36' W 074°03'0 0.6
2018-May-16 19:00N 40°36' W 074°03'4 7.1
2018-May-16 18:24N 40°39' W 074°08'1 3.5
2018-May-16 18:00N 40°38' W 074°10'2 0.4
2018-May-16 12:50N 40°37' W 074°12'2 7.3
2018-May-16 12:30N 40°39' W 074°10'0 0.2
2018-May-16 10:47N 40°38' W 074°10'2 7.2
2018-May-16 10:30N 40°40' W 074°08'1 2.3
2018-May-16 10:00N 40°41' W 074°09'0 0.8
2018-May-16 09:31N 40°41' W 074°09'2 4.7
2018-May-16 09:00N 40°39' W 074°09'4 8.0
2018-May-16 08:30N 40°38' W 074°03'2 4.4
2018-May-16 07:58N 40°39' W 074°06'3 5.8
2018-May-16 07:30N 40°38' W 074°10'0 0.0
2018-May-16 07:00N 40°38' W 074°10'0 0.0
2018-May-16 06:30N 40°38' W 074°10'0 0.0
2018-May-16 06:00N 40°38' W 074°10'4 0.3
2018-May-15 14:10N 40°35' W 074°13'2 8.3
2018-May-15 13:55N 40°37' W 074°12'3 7.4
2018-May-15 13:30N 40°39' W 074°09'1 1.5
2018-May-15 13:00N 40°40' W 074°09'1 2.9
2018-May-15 12:30N 40°39' W 074°07'4 0.4
2018-May-15 00:52N 40°37' W 074°12'3 7.1
2018-May-15 00:30N 40°39' W 074°09'2 4.8
2018-May-15 00:00N 40°41' W 074°09'0 0.3
2018-May-14 23:30N 40°41' W 074°10'1 2.7
2018-May-14 23:00N 40°40' W 074°08'2 4.3
2018-May-14 22:29N 40°38' W 074°10'0 0.0
2018-May-14 22:00N 40°38' W 074°10'0 0.0
2018-May-14 21:29N 40°38' W 074°10'0 0.0
2018-May-14 21:00N 40°38' W 074°10'0 0.0
2018-May-14 20:29N 40°38' W 074°10'0 0.0
2018-May-14 19:59N 40°38' W 074°10'0 0.0
2018-May-14 19:00N 40°38' W 074°10'0 0.0
2018-May-14 18:29N 40°38' W 074°10'0 0.0
2018-May-14 18:00N 40°38' W 074°10'0 0.8
2018-May-14 17:30N 40°38' W 074°09'2 3.6
2018-May-14 16:55N 40°39' W 074°07'0 0.0
2018-May-14 16:28N 40°39' W 074°07'2 3.8
2018-May-14 16:00N 40°39' W 074°09'2 3.0
2018-May-14 15:30N 40°40' W 074°08'0 0.0
2018-May-14 14:59N 40°40' W 074°08'0 0.0
2018-May-14 14:30N 40°40' W 074°08'0 0.1
2018-May-14 14:00N 40°40' W 074°08'3 6.6
2018-May-14 13:29N 40°38' W 074°12'0 0.6
2018-May-14 12:55N 40°38' W 074°12'0 0.0
2018-May-14 12:25N 40°38' W 074°12'0 0.9
2018-May-14 11:59N 40°38' W 074°12'2 4.5
2018-May-14 11:30N 40°39' W 074°09'3 6.7
2018-May-14 11:00N 40°39' W 074°05'2 4.1
2018-May-14 10:30N 40°37' W 074°03'4 7.8
2018-May-14 09:59N 40°39' W 074°08'1 2.3
2018-May-14 09:30N 40°38' W 074°09'3 6.0
2018-May-14 09:00N 40°39' W 074°06'3 5.5
2018-May-14 08:30N 40°37' W 074°03'4 6.5
2018-May-14 07:56N 40°39' W 074°07'2 4.9
2018-May-14 07:30N 40°38' W 074°10'0 0.0
2018-May-14 07:00N 40°38' W 074°10'0 0.0
2018-May-14 06:30N 40°38' W 074°10'2 5.0
2018-May-14 06:00N 40°39' W 074°07'2 4.2
2018-May-14 05:30N 40°38' W 074°04'3 5.3
2018-May-14 04:54N 40°39' W 074°08'1 3.1
2018-May-14 04:30N 40°38' W 074°10'0 0.0
2018-May-14 04:00N 40°38' W 074°10'0 0.0
2018-May-14 03:25N 40°38' W 074°10'0 0.0
2018-May-14 03:00N 40°38' W 074°10'0 0.0
2018-May-14 02:27N 40°38' W 074°10'0 0.0
2018-May-14 02:00N 40°38' W 074°10'0 0.0
2018-May-14 01:25N 40°38' W 074°10'0 0.0
2018-May-14 00:55N 40°38' W 074°10'0 0.0
2018-May-14 00:30N 40°38' W 074°10'0 0.0
2018-May-14 00:00N 40°38' W 074°10'0 0.0
2018-May-13 23:30N 40°38' W 074°10'0 0.0
2018-May-13 23:00N 40°38' W 074°10'1 1.6
2018-May-13 22:23N 40°39' W 074°11'1 0.1
2018-May-13 02:31N 40°38' W 074°12'0 8.6
2018-May-13 02:30N 40°38' W 074°12'2 1.5
2018-May-13 01:19N 40°38' W 074°10'0 0.0
2018-May-13 00:58N 40°38' W 074°10'0 0.0
2018-May-13 00:30N 40°38' W 074°10'3 6.2
2018-May-13 00:00N 40°39' W 074°06'2 4.0
2018-May-12 23:24N 40°39' W 074°09'1 1.9
2018-May-12 23:00N 40°40' W 074°09'1 1.2
2018-May-12 22:30N 40°40' W 074°08'0 0.0
2018-May-12 22:00N 40°40' W 074°08'0 0.0
2018-May-12 21:30N 40°40' W 074°08'0 0.0
2018-May-12 21:00N 40°40' W 074°08'0 0.0
2018-May-12 20:30N 40°40' W 074°08'0 0.0
2018-May-12 20:00N 40°40' W 074°08'0 0.0
2018-May-12 19:30N 40°40' W 074°08'0 0.0
2018-May-12 19:00N 40°40' W 074°08'0 0.0
2018-May-12 18:28N 40°40' W 074°08'1 2.9
2018-May-12 18:00N 40°39' W 074°09'3 5.7
2018-May-12 17:30N 40°39' W 074°05'0 0.2
2018-May-12 17:00N 40°39' W 074°05'1 1.9
2018-May-12 16:26N 40°39' W 074°07'3 5.0
2018-May-12 15:55N 40°38' W 074°10'0 0.0
2018-May-12 15:30N 40°38' W 074°10'0 0.0
2018-May-12 14:57N 40°38' W 074°10'0 0.0
2018-May-12 14:30N 40°38' W 074°10'0 0.0
2018-May-12 14:00N 40°38' W 074°10'0 0.0
2018-May-12 13:28N 40°38' W 074°10'0 0.0
2018-May-12 13:00N 40°38' W 074°10'0 0.0
2018-May-12 12:30N 40°38' W 074°10'5 3.1
2018-May-12 11:02N 40°34' W 074°13'0 4.3
2018-May-12 10:56N 40°35' W 074°13'1 0.4
2018-May-12 08:45N 40°36' W 074°12'2 9.2
2018-May-12 08:30N 40°38' W 074°12'2 3.4
2018-May-12 08:00N 40°38' W 074°10'0 0.0
2018-May-12 07:30N 40°38' W 074°10'0 0.0
2018-May-12 06:58N 40°38' W 074°10'0 0.0
2018-May-12 03:49N 40°38' W 074°10'0 0.0
2018-May-12 03:30N 40°38' W 074°10'0 0.0
2018-May-12 00:11N 40°38' W 074°10'0 0.0
2018-May-11 20:46N 40°38' W 074°10'1 0.4
2018-May-11 18:09N 40°39' W 074°11'1 5.4
2018-May-11 18:00N 40°39' W 074°10'3 6.9
2018-May-11 17:30N 40°39' W 074°06'2 3.6
2018-May-11 16:56N 40°37' W 074°04'4 3.7
2018-May-11 15:46N 40°39' W 074°09'0 1.3
2018-May-11 15:30N 40°40' W 074°09'0 0.0
2018-May-11 15:00N 40°40' W 074°09'0 0.0
2018-May-11 10:35N 40°40' W 074°09'0 2.5
2018-May-11 10:30N 40°40' W 074°08'0 0.4
2018-May-11 09:52N 40°40' W 074°08'2 4.3
2018-May-11 09:28N 40°39' W 074°09'1 0.1
2018-May-11 00:27N 40°39' W 074°10'1 0.9
2018-May-10 23:11N 40°39' W 074°09'1 5.6
2018-May-10 23:01N 40°39' W 074°08'2 0.7
2018-May-10 19:44N 40°39' W 074°11'2 5.6
2018-May-10 19:22N 40°39' W 074°09'3 7.5
2018-May-10 19:00N 40°39' W 074°05'1 3.0
2018-May-10 18:31N 40°38' W 074°04'5 4.9
2018-May-10 17:34N 40°38' W 074°10'0 0.1
2018-May-10 17:29N 40°38' W 074°10'0 0.3
2018-May-10 16:20N 40°39' W 074°10'2 6.5
2018-May-10 16:00N 40°39' W 074°07'3 5.3
2018-May-10 15:29N 40°38' W 074°03'1 1.9
2018-May-10 14:45N 40°37' W 074°03'1 1.5
2018-May-10 14:22N 40°37' W 074°03'5 7.0
2018-May-10 13:37N 40°38' W 074°10'0 0.0
2018-May-10 13:21N 40°38' W 074°10'  

Dump ship's entire track history